Time;durP1;ratioP1;P1;durP2;ratioP2;P2;SDS_P1;SDS_P2;PMS_P1;PMS_P2;Temp;Humidity;BMP_temperature;BMP_pressure;BME280_temperature;BME280_humidity;BME280_pressure;Samples;Min_cycle;Max_cycle;Signal;HPM_P1;HPM_P2
2021/06/21 00:01:53;;;;;;;8.88;7.40;;;;;;;21.79;68.57;97878.67;126529;1092;25977;-82
2021/06/21 00:04:20;;;;;;;7.63;6.90;;;;;;;21.70;69.03;97878.71;126539;1092;22916;-82
2021/06/21 00:06:47;;;;;;;8.95;6.65;;;;;;;21.62;69.13;97879.58;126507;1092;22769;-82
2021/06/21 00:09:14;;;;;;;9.23;6.30;;;;;;;21.59;69.11;97875.50;126578;1093;22772;-81
2021/06/21 00:11:41;;;;;;;7.85;6.40;;;;;;;21.56;69.22;97878.13;126456;1092;24276;-81
2021/06/21 00:14:07;;;;;;;11.03;6.70;;;;;;;21.51;69.50;97881.07;126489;1093;22759;-81
2021/06/21 00:16:34;;;;;;;8.68;7.55;;;;;;;21.45;69.80;97871.30;126536;1092;27198;-81
2021/06/21 00:19:02;;;;;;;7.80;7.10;;;;;;;21.38;69.84;97858.75;126483;1093;22896;-83
2021/06/21 00:21:29;;;;;;;8.63;7.03;;;;;;;21.33;70.08;97861.70;126558;1093;23321;-82
2021/06/21 00:24:10;;;;;;;9.63;6.30;;;;;;;21.28;70.31;97852.77;126589;1091;25848;-82
2021/06/21 00:26:37;;;;;;;7.65;6.35;;;;;;;21.23;70.54;97860.12;126490;1093;24555;-82
2021/06/21 00:29:04;;;;;;;11.45;7.28;;;;;;;21.21;70.48;97853.27;126542;1093;22784;-82
2021/06/21 00:31:30;;;;;;;12.48;7.20;;;;;;;21.19;70.77;97853.59;126585;1093;22780;-82
2021/06/21 00:33:57;;;;;;;8.28;7.48;;;;;;;21.15;70.72;97851.83;126504;1093;24443;-82
2021/06/21 00:36:24;;;;;;;11.78;6.70;;;;;;;21.14;70.92;97842.72;126641;1093;22809;-82
2021/06/21 00:38:51;;;;;;;8.43;5.53;;;;;;;21.15;70.74;97844.33;126572;1093;22761;-82
2021/06/21 00:41:18;;;;;;;10.78;6.95;;;;;;;21.18;70.77;97845.64;126529;1093;22759;-82
2021/06/21 00:43:45;;;;;;;9.33;7.28;;;;;;;21.20;70.98;97849.69;126529;1093;22845;-82
2021/06/21 00:46:12;;;;;;;10.15;6.15;;;;;;;21.18;70.56;97843.67;126494;1093;26251;-82
2021/06/21 00:48:40;;;;;;;9.43;7.28;;;;;;;21.10;70.79;97835.39;126518;1092;22801;-83
2021/06/21 00:51:08;;;;;;;;;;;;;;;21.08;71.11;97841.25;126472;1092;22886;-82
2021/06/21 00:53:36;;;;;;;9.10;6.33;;;;;;;21.08;71.10;97832.14;126443;1092;21521;-82
2021/06/21 00:56:03;;;;;;;8.53;6.70;;;;;;;21.07;71.02;97833.27;126670;1091;23040;-82
2021/06/21 00:58:31;;;;;;;10.28;7.23;;;;;;;21.02;71.22;97826.78;126585;1092;22887;-82
2021/06/21 01:00:58;;;;;;;8.48;7.08;;;;;;;20.97;71.20;97831.69;126492;1091;22781;-82
2021/06/21 01:03:25;;;;;;;8.20;7.20;;;;;;;20.91;71.36;97824.67;126537;1093;26273;-82
2021/06/21 01:05:52;;;;;;;14.75;7.45;;;;;;;20.85;71.34;97822.08;126690;1093;27189;-82
2021/06/21 01:08:19;;;;;;;11.83;6.00;;;;;;;20.83;71.62;97813.30;126287;1093;22776;-82
2021/06/21 01:10:50;;;;;;;12.20;7.48;;;;;;;20.83;71.56;97804.99;126354;1093;23523;-82
2021/06/21 01:13:23;;;;;;;8.43;6.73;;;;;;;20.84;71.81;97806.63;126613;1092;22916;-82
2021/06/21 01:16:29;;;;;;;9.50;7.27;;;;;;;20.82;71.63;97799.78;126576;1092;22788;-82
2021/06/21 01:19:42;;;;;;;8.90;7.63;;;;;;;20.81;71.38;97806.48;126539;1093;22954;-82
2021/06/21 01:22:46;;;;;;;9.28;7.13;;;;;;;20.78;71.34;97794.09;126528;1091;22788;-82
2021/06/21 01:25:47;;;;;;;10.03;6.35;;;;;;;20.73;71.37;97783.20;126386;1093;23428;-82
2021/06/21 01:28:37;;;;;;;11.88;6.95;;;;;;;20.67;71.58;97781.75;126307;1093;22784;-82
2021/06/21 01:31:12;;;;;;;8.53;7.47;;;;;;;20.61;71.98;97791.31;126469;1093;22774;-83
2021/06/21 01:33:40;;;;;;;11.13;8.30;;;;;;;20.55;72.28;97782.38;126433;1093;22848;-82
2021/06/21 01:36:10;;;;;;;9.60;8.30;;;;;;;20.49;72.53;97781.74;126367;1092;24616;-82
2021/06/21 01:38:43;;;;;;;10.43;7.80;;;;;;;20.45;72.82;97771.65;126375;1093;24456;-82
2021/06/21 01:41:26;;;;;;;8.08;6.48;;;;;;;20.43;72.90;97773.93;126453;1091;22899;-82
2021/06/21 01:43:55;;;;;;;10.63;6.78;;;;;;;20.40;73.01;97775.41;126379;1093;22925;-82
2021/06/21 01:46:30;;;;;;;10.50;7.88;;;;;;;20.40;73.23;97761.59;126414;1092;22787;-82
2021/06/21 01:49:13;;;;;;;;;;;;;;;20.42;73.65;97766.80;126337;1093;25900;-82
2021/06/21 01:51:40;;;;;;;10.48;8.58;;;;;;;20.43;73.69;97763.70;126615;1092;24231;-82
2021/06/21 01:54:09;;;;;;;14.30;8.60;;;;;;;20.44;73.72;97756.21;126534;1093;22766;-82
2021/06/21 01:56:41;;;;;;;8.83;7.28;;;;;;;20.45;73.78;97766.95;126353;1093;24440;-82
2021/06/21 01:59:26;;;;;;;8.57;6.90;;;;;;;20.46;73.74;97762.22;126328;1093;26709;-82
2021/06/21 02:02:08;;;;;;;10.53;7.43;;;;;;;20.45;73.86;97763.35;126408;1092;22799;-82
2021/06/21 02:04:36;;;;;;;14.38;7.50;;;;;;;20.48;73.83;97765.47;126512;1092;22767;-82
2021/06/21 02:07:04;;;;;;;9.65;8.75;;;;;;;20.46;73.91;97753.92;126497;1092;22812;-82
2021/06/21 02:09:32;;;;;;;8.40;7.60;;;;;;;20.45;73.75;97755.05;126468;1093;22927;-82
2021/06/21 02:12:01;;;;;;;8.37;6.63;;;;;;;20.47;74.02;97750.84;126535;1092;22760;-82
2021/06/21 02:14:42;;;;;;;9.93;7.30;;;;;;;20.47;73.96;97755.56;126560;1093;24428;-82
2021/06/21 02:17:10;;;;;;;8.93;7.90;;;;;;;20.47;73.96;97752.80;126457;1093;22769;-82
2021/06/21 02:19:37;;;;;;;10.35;8.05;;;;;;;20.44;74.07;97743.19;126276;1093;24402;-81
2021/06/21 02:22:04;;;;;;;9.77;7.53;;;;;;;20.42;74.08;97745.47;126580;1093;22811;-82
2021/06/21 02:24:31;;;;;;;8.25;7.40;;;;;;;20.41;74.12;97737.50;126413;1093;22870;-82
2021/06/21 02:26:59;;;;;;;10.58;7.20;;;;;;;20.40;74.32;97731.16;126564;1092;26283;-82
2021/06/21 02:29:28;;;;;;;13.30;7.97;;;;;;;20.40;74.27;97733.92;126352;1092;22775;-82
2021/06/21 02:31:55;;;;;;;15.93;8.27;;;;;;;20.36;74.52;97727.44;126421;1093;24520;-82
2021/06/21 02:34:22;;;;;;;9.28;8.30;;;;;;;20.35;74.42;97736.86;126594;1093;22812;-82
2021/06/21 02:37:04;;;;;;;10.08;8.43;;;;;;;20.35;74.66;97734.09;126390;1093;24451;-82
2021/06/21 02:39:31;;;;;;;13.35;6.98;;;;;;;20.36;74.54;97730.20;126366;1092;22786;-82
2021/06/21 02:41:58;;;;;;;10.40;7.90;;;;;;;20.37;74.66;97729.05;126279;1093;22813;-82
2021/06/21 02:44:25;;;;;;;12.65;8.20;;;;;;;20.35;74.73;97725.80;126305;1092;22845;-83
2021/06/21 02:46:52;;;;;;;11.77;8.20;;;;;;;20.34;74.92;97732.45;126532;1093;24507;-82
2021/06/21 02:49:34;;;;;;;9.43;7.58;;;;;;;20.33;74.93;97721.72;126392;1093;22858;-82
2021/06/21 02:52:10;;;;;;;7.83;7.13;;;;;;;20.33;74.79;97725.31;126454;1092;24264;-82
2021/06/21 02:54:40;;;;;;;9.80;6.73;;;;;;;20.35;74.89;97730.52;126063;1093;22922;-82
2021/06/21 02:57:30;;;;;;;12.20;8.00;;;;;;;20.35;74.67;97733.29;126149;1093;24395;-82
2021/06/21 02:59:58;;;;;;;9.23;7.30;;;;;;;20.35;74.74;97736.05;126041;1093;22915;-82
2021/06/21 03:02:25;;;;;;;10.20;7.80;;;;;;;20.33;74.79;97749.37;126204;1093;22903;-82
2021/06/21 03:05:07;;;;;;;8.15;6.93;;;;;;;20.34;74.86;97743.52;125974;1093;27202;-82
2021/06/21 03:07:35;;;;;;;10.40;6.93;;;;;;;20.34;74.76;97745.48;126036;1092;24137;-82
2021/06/21 03:10:05;;;;;;;8.48;7.58;;;;;;;20.36;74.82;97743.19;126253;1093;22831;-82
2021/06/21 03:12:33;;;;;;;9.53;8.30;;;;;;;20.35;74.93;97750.69;126067;1093;27198;-82
2021/06/21 03:15:00;;;;;;;11.00;8.60;;;;;;;20.37;74.91;97747.59;126046;1093;22777;-83
2021/06/21 03:17:28;;;;;;;10.88;8.13;;;;;;;20.39;75.09;97742.55;126061;1093;27192;-83
2021/06/21 03:19:56;;;;;;;11.60;8.15;;;;;;;20.41;75.06;97745.80;126123;1092;22764;-83
2021/06/21 03:22:25;;;;;;;14.85;7.48;;;;;;;20.42;74.93;97750.20;126074;1093;26245;-83
2021/06/21 03:24:56;;;;;;;10.23;7.30;;;;;;;20.47;75.02;97755.56;126255;1093;24402;-82
2021/06/21 03:27:30;;;;;;;9.63;8.38;;;;;;;20.51;75.06;97758.48;126233;1093;22761;-82
2021/06/21 03:29:58;;;;;;;12.30;8.63;;;;;;;20.53;74.97;97750.67;126021;1093;22834;-82
2021/06/21 03:32:26;;;;;;;11.23;7.93;;;;;;;20.53;74.99;97751.47;126130;1092;24160;-82
2021/06/21 03:34:56;;;;;;;10.97;7.93;;;;;;;20.53;74.86;97748.70;126211;1092;22919;-82
2021/06/21 03:37:23;;;;;;;10.83;8.20;;;;;;;20.57;74.98;97760.73;126045;1093;22771;-82
2021/06/21 03:39:51;;;;;;;9.28;8.10;;;;;;;20.60;75.01;97768.38;126049;1093;27188;-82
2021/06/21 03:42:18;;;;;;;10.15;8.53;;;;;;;20.64;74.91;97768.56;126071;1093;22788;-82
2021/06/21 03:44:46;;;;;;;9.73;8.47;;;;;;;20.68;75.02;97766.77;126010;1093;25868;-82
2021/06/21 03:47:13;;;;;;;8.43;7.00;;;;;;;20.70;75.05;97752.60;126254;1093;22778;-82
2021/06/21 03:49:43;;;;;;;11.33;8.50;;;;;;;20.71;74.88;97743.97;126157;1093;22778;-82
2021/06/21 03:52:10;;;;;;;9.93;9.03;;;;;;;20.74;75.04;97748.05;126045;1093;22828;-82
2021/06/21 03:54:37;;;;;;;13.25;9.85;;;;;;;20.76;74.99;97748.53;126039;1093;22758;-82
2021/06/21 03:57:05;;;;;;;11.35;8.20;;;;;;;20.76;75.11;97756.84;126164;1093;22790;-82
2021/06/21 03:59:32;;;;;;;;;;;;;;;20.80;75.03;97757.79;126206;1093;22793;-82
2021/06/21 04:01:59;;;;;;;13.03;8.48;;;;;;;20.81;75.28;97763.00;126229;1093;21467;-82
2021/06/21 04:04:27;;;;;;;11.83;8.93;;;;;;;20.85;75.27;97757.62;126297;1093;25871;-82
2021/06/21 04:06:54;;;;;;;10.43;8.93;;;;;;;20.88;75.45;97764.47;126104;1093;22772;-82
2021/06/21 04:09:21;;;;;;;15.53;10.75;;;;;;;20.89;75.29;97755.00;126040;1093;22851;-82
2021/06/21 04:11:50;;;;;;;13.65;9.90;;;;;;;20.93;75.00;97762.33;126046;1093;26446;-83
2021/06/21 04:14:17;;;;;;;12.70;9.53;;;;;;;20.93;75.00;97759.56;126271;1093;27355;-82
2021/06/21 04:16:44;;;;;;;12.20;9.50;;;;;;;20.96;75.14;97760.84;126018;1093;24603;-82
2021/06/21 04:19:11;;;;;;;14.23;10.08;;;;;;;20.95;75.05;97757.27;126014;1092;27160;-82
2021/06/21 04:21:38;;;;;;;11.93;10.60;;;;;;;20.96;75.43;97763.61;126057;1092;22790;-82
2021/06/21 04:24:05;;;;;;;13.00;9.68;;;;;;;20.98;75.33;97761.31;126136;1093;22772;-82
2021/06/21 04:26:32;;;;;;;10.60;9.10;;;;;;;21.00;75.23;97762.63;126038;1093;22809;-82
2021/06/21 04:28:59;;;;;;;12.83;9.18;;;;;;;21.05;75.05;97772.69;126277;1093;22941;-83
2021/06/21 04:31:26;;;;;;;11.28;9.53;;;;;;;21.10;74.99;97777.25;126120;1092;22809;-83
2021/06/21 04:33:53;;;;;;;15.13;9.67;;;;;;;21.12;74.96;97767.45;126092;1092;22768;-83
2021/06/21 04:36:34;;;;;;;11.83;10.10;;;;;;;21.15;74.87;97765.99;126295;1093;27333;-83
2021/06/21 04:39:01;;;;;;;13.90;9.57;;;;;;;21.16;74.98;97762.06;126130;1093;22784;-83
2021/06/21 04:41:28;;;;;;;10.23;7.43;;;;;;;21.19;74.61;97762.21;126226;1092;23073;-82
2021/06/21 04:43:55;;;;;;;13.37;8.37;;;;;;;21.24;74.84;97762.03;126172;1093;25868;-82
2021/06/21 04:46:23;;;;;;;11.73;7.90;;;;;;;21.27;74.29;97759.77;126314;1093;22810;-83
2021/06/21 04:48:51;;;;;;;13.25;7.83;;;;;;;21.32;73.89;97762.32;126619;1093;22791;-83
2021/06/21 04:51:20;;;;;;;13.83;7.93;;;;;;;21.33;74.09;97759.22;126513;1093;25868;-83
2021/06/21 04:53:48;;;;;;;8.88;7.43;;;;;;;21.36;73.98;97766.88;126320;1093;22760;-83
2021/06/21 04:56:16;;;;;;;9.08;6.40;;;;;;;21.39;73.53;97774.52;126605;1092;22775;-83
2021/06/21 04:58:44;;;;;;;8.45;7.03;;;;;;;21.47;73.47;97780.38;126458;1093;24447;-83
2021/06/21 05:01:11;;;;;;;10.68;6.55;;;;;;;21.53;73.27;97779.03;126383;1093;22849;-83
2021/06/21 05:03:38;;;;;;;9.77;6.03;;;;;;;21.57;72.97;97785.55;126286;1093;26284;-83
2021/06/21 05:06:06;;;;;;;10.30;7.08;;;;;;;21.58;72.56;97778.84;126330;1093;22762;-83
2021/06/21 05:08:48;;;;;;;9.20;7.20;;;;;;;21.65;72.60;97790.22;126358;1093;22909;-83
2021/06/21 05:11:14;;;;;;;11.73;5.40;;;;;;;21.70;72.28;97803.88;126415;1093;22808;-83
2021/06/21 05:13:41;;;;;;;8.95;6.13;;;;;;;21.73;72.25;97786.59;126392;1092;26296;-83
2021/06/21 05:16:23;;;;;;;7.78;6.23;;;;;;;21.79;71.84;97789.98;126577;1092;22760;-83
2021/06/21 05:18:50;;;;;;;9.23;5.53;;;;;;;21.85;71.51;97785.05;126339;1093;25871;-83
2021/06/21 05:21:17;;;;;;;8.15;5.85;;;;;;;21.87;70.87;97783.58;126392;1093;22774;-83
2021/06/21 05:23:44;;;;;;;11.83;5.93;;;;;;;21.90;70.74;97782.91;126324;1093;22893;-83
2021/06/21 05:26:11;;;;;;;13.50;5.45;;;;;;;21.91;70.19;97776.20;126567;1093;22804;-83
2021/06/21 05:28:38;;;;;;;7.95;5.03;;;;;;;21.95;70.21;97784.66;126407;1092;22919;-83
2021/06/21 05:31:19;;;;;;;8.83;4.70;;;;;;;21.99;70.12;97780.89;126466;1093;27328;-83
2021/06/21 05:33:47;;;;;;;6.88;5.20;;;;;;;22.03;69.80;97778.25;126294;1093;22768;-83
2021/06/21 05:36:14;;;;;;;10.50;5.78;;;;;;;22.09;69.93;97776.89;126443;1093;22760;-83
2021/06/21 05:38:41;;;;;;;15.85;5.30;;;;;;;22.17;69.76;97786.31;126353;1093;22986;-83
2021/06/21 05:41:07;;;;;;;8.38;4.68;;;;;;;22.25;69.62;97779.06;126337;1093;22845;-82
2021/06/21 05:43:34;;;;;;;11.30;4.57;;;;;;;22.31;69.00;97788.81;126399;1093;22799;-83
2021/06/21 05:46:16;;;;;;;10.05;4.50;;;;;;;22.39;68.51;97778.82;126331;1093;22855;-83
2021/06/21 05:48:43;;;;;;;12.98;4.65;;;;;;;22.45;68.49;97781.05;126365;1093;22848;-83
2021/06/21 05:51:25;;;;;;;11.00;5.03;;;;;;;22.55;68.24;97779.81;126371;1093;22601;-83
2021/06/21 05:53:52;;;;;;;12.78;5.00;;;;;;;22.62;67.92;97773.71;126364;1093;22776;-83
2021/06/21 05:56:18;;;;;;;10.60;4.43;;;;;;;22.67;67.57;97776.28;126488;1092;24444;-83
2021/06/21 05:58:45;;;;;;;13.78;4.75;;;;;;;22.72;67.22;97779.64;126543;1092;22973;-83
2021/06/21 06:01:12;;;;;;;11.60;4.53;;;;;;;22.77;66.80;97784.18;126439;1093;24063;-83
2021/06/21 06:03:39;;;;;;;9.50;4.43;;;;;;;22.82;66.87;97772.03;126421;1093;22781;-83
2021/06/21 06:06:06;;;;;;;9.45;4.55;;;;;;;22.86;66.65;97772.95;126374;1092;22793;-83
2021/06/21 06:08:33;;;;;;;8.95;4.15;;;;;;;22.91;66.14;97781.91;126543;1093;23039;-83
2021/06/21 06:11:00;;;;;;;11.80;3.90;;;;;;;22.96;65.92;97778.08;126325;1093;23038;-83
2021/06/21 06:13:28;;;;;;;11.30;4.50;;;;;;;23.01;65.60;97771.51;126378;1093;27306;-83
2021/06/21 06:15:55;;;;;;;9.38;4.18;;;;;;;23.09;65.54;97781.75;126315;1093;24409;-83
2021/06/21 06:18:22;;;;;;;10.70;4.65;;;;;;;23.17;65.50;97780.02;126507;1093;22967;-83
2021/06/21 06:20:49;;;;;;;10.50;4.33;;;;;;;23.21;65.24;97787.30;126379;1093;22794;-82
2021/06/21 06:23:17;;;;;;;10.35;4.80;;;;;;;23.26;65.02;97789.85;126555;1093;22761;-83
2021/06/21 06:25:43;;;;;;;11.53;5.03;;;;;;;23.33;64.77;97788.48;126428;1093;23694;-83
2021/06/21 06:28:10;;;;;;;9.63;4.27;;;;;;;23.38;64.90;97785.48;126327;1093;27306;-83
2021/06/21 06:30:38;;;;;;;8.03;4.60;;;;;;;23.41;64.80;97782.82;126435;1093;22925;-83
2021/06/21 06:33:07;;;;;;;12.17;4.80;;;;;;;23.46;64.66;97787.31;126419;1093;22773;-83
2021/06/21 06:35:33;;;;;;;7.90;4.08;;;;;;;23.53;64.68;97781.19;126540;1093;22808;-83
2021/06/21 06:38:00;;;;;;;11.78;4.43;;;;;;;23.58;65.40;97770.64;126480;1093;22787;-83
2021/06/21 06:40:27;;;;;;;9.05;4.68;;;;;;;23.64;64.51;97769.27;126480;1093;22803;-83
2021/06/21 06:42:54;;;;;;;8.15;3.93;;;;;;;23.72;63.90;97773.08;126285;1092;26282;-83
2021/06/21 06:45:22;;;;;;;10.70;4.85;;;;;;;23.82;64.25;97769.05;126568;1091;22790;-83
2021/06/21 06:47:49;;;;;;;12.63;4.60;;;;;;;23.92;64.23;97770.53;126550;1093;24523;-83
2021/06/21 06:50:16;;;;;;;13.10;4.10;;;;;;;24.02;64.39;97770.05;126515;1093;26539;-83
2021/06/21 06:52:45;;;;;;;11.68;5.13;;;;;;;24.08;63.94;97774.20;126303;1092;22805;-83
2021/06/21 06:57:59;;;;;;;7.53;4.85;;;;;;;24.24;63.06;97763.14;126547;1091;26239;-83
2021/06/21 07:00:26;;;;;;;12.60;5.53;;;;;;;24.29;63.10;97765.68;126483;1093;26283;-83
2021/06/21 07:02:53;;;;;;;7.93;4.78;;;;;;;24.38;63.30;97768.32;126545;1093;23691;-83
2021/06/21 07:05:20;;;;;;;15.10;5.75;;;;;;;24.44;62.74;97762.16;126731;1093;22845;-83
2021/06/21 07:07:47;;;;;;;11.65;5.15;;;;;;;24.51;62.46;97755.19;126671;1093;22776;-83
2021/06/21 07:10:14;;;;;;;12.85;5.00;;;;;;;24.55;62.09;97767.25;126689;1093;22928;-83
2021/06/21 07:12:41;;;;;;;10.65;5.08;;;;;;;24.61;62.02;97755.52;127383;1092;22650;-83
2021/06/21 07:15:08;;;;;;;23.30;5.38;;;;;;;24.65;61.42;97752.83;129450;1093;26292;-83
2021/06/21 07:17:35;;;;;;;9.40;5.23;;;;;;;24.71;61.29;97759.75;126732;1093;22810;-83
2021/06/21 07:20:03;;;;;;;11.18;5.00;;;;;;;24.81;61.31;97759.23;126968;1092;23665;-83
2021/06/21 07:22:30;;;;;;;9.33;5.00;;;;;;;24.91;61.06;97757.89;126671;1092;22763;-83
2021/06/21 07:24:58;;;;;;;8.85;5.18;;;;;;;25.00;60.88;97760.50;126888;1093;22919;-83
2021/06/21 07:27:26;;;;;;;8.80;5.40;;;;;;;25.10;61.51;97757.20;126956;1092;22796;-83
2021/06/21 07:30:09;;;;;;;12.80;5.63;;;;;;;25.17;61.23;97757.38;126850;1093;22895;-83
2021/06/21 07:32:36;;;;;;;11.87;4.93;;;;;;;25.26;60.62;97748.88;126882;1093;22809;-83
2021/06/21 07:35:03;;;;;;;8.78;4.75;;;;;;;25.34;60.52;97752.67;127024;1092;22928;-83
2021/06/21 07:37:30;;;;;;;10.00;4.75;;;;;;;25.41;59.25;97752.84;129538;1093;23497;-83
2021/06/21 07:39:57;;;;;;;8.15;4.88;;;;;;;25.46;59.38;97749.78;126693;1092;22760;-83
2021/06/21 07:42:24;;;;;;;12.58;4.50;;;;;;;25.53;59.38;97749.95;126611;1093;22876;-83
2021/06/21 07:44:51;;;;;;;14.08;5.45;;;;;;;25.62;59.83;97752.55;127002;1093;22906;-83
2021/06/21 07:47:18;;;;;;;9.23;5.15;;;;;;;25.72;59.69;97740.02;126879;1092;22805;-83
2021/06/21 07:49:45;;;;;;;10.80;5.28;;;;;;;25.85;59.34;97740.69;126956;1092;22755;-83
2021/06/21 07:52:12;;;;;;;10.25;5.08;;;;;;;25.96;59.07;97733.42;126677;1092;23436;-83
2021/06/21 07:54:38;;;;;;;11.23;4.80;;;;;;;26.04;58.25;97732.38;126754;1093;23132;-83
2021/06/21 07:57:06;;;;;;;13.05;5.20;;;;;;;26.15;58.08;97729.82;126450;1093;22825;-83
2021/06/21 07:59:33;;;;;;;11.05;5.30;;;;;;;26.27;58.09;97735.27;126517;1093;22915;-83
2021/06/21 08:02:00;;;;;;;12.48;4.95;;;;;;;26.36;57.70;97734.24;126456;1092;24432;-83
2021/06/21 08:04:27;;;;;;;11.68;5.13;;;;;;;26.48;57.58;97732.10;126786;1092;22738;-83
2021/06/21 08:06:54;;;;;;;11.40;4.05;;;;;;;26.61;57.15;97743.94;126777;1092;23425;-83
2021/06/21 08:09:21;;;;;;;12.50;4.10;;;;;;;26.71;56.26;97746.14;126506;1093;22815;-83
2021/06/21 08:11:48;;;;;;;13.38;4.23;;;;;;;26.82;55.28;97745.55;126455;1092;22855;-83
2021/06/21 08:14:14;;;;;;;11.58;4.13;;;;;;;26.93;55.54;97737.36;126479;1093;27380;-83
2021/06/21 08:16:41;;;;;;;11.10;4.50;;;;;;;27.05;55.53;97742.77;126471;1093;22753;-83
2021/06/21 08:19:08;;;;;;;13.38;3.83;;;;;;;27.19;53.59;97733.83;126187;1093;22769;-83
2021/06/21 08:21:35;;;;;;;7.60;3.10;;;;;;;27.32;53.71;97740.05;127014;1093;23690;-84
2021/06/21 08:24:09;;;;;;;8.45;3.48;;;;;;;27.47;54.06;97741.91;126908;1093;26249;-83
2021/06/21 08:26:39;;;;;;;12.77;3.60;;;;;;;27.64;53.04;97751.75;126483;1093;22854;-83
2021/06/21 08:29:06;;;;;;;8.63;3.60;;;;;;;27.77;51.93;97757.97;126012;1093;22757;-83
2021/06/21 08:31:34;;;;;;;7.80;3.35;;;;;;;27.93;51.40;97763.42;126252;1093;22913;-83
2021/06/21 08:34:01;;;;;;;12.63;3.53;;;;;;;28.08;51.45;97765.22;126034;1093;22790;-83
2021/06/21 08:36:28;;;;;;;14.88;3.48;;;;;;;28.24;50.28;97765.03;126003;1093;22812;-83
2021/06/21 08:38:55;;;;;;;9.43;3.13;;;;;;;28.37;49.09;97780.43;126575;1093;22913;-83
2021/06/21 08:41:23;;;;;;;13.87;3.30;;;;;;;28.51;48.60;97765.00;126259;1093;26284;-83
2021/06/21 08:43:50;;;;;;;11.08;2.80;;;;;;;28.61;48.17;97758.73;126246;1093;26249;-83
2021/06/21 08:46:18;;;;;;;10.00;2.78;;;;;;;28.65;46.95;97753.16;126099;1093;22916;-83
2021/06/21 08:48:48;;;;;;;10.38;3.88;;;;;;;28.70;46.98;97742.45;126364;1093;25865;-83
2021/06/21 08:51:17;;;;;;;7.68;3.73;;;;;;;28.80;47.38;97745.73;126246;1092;27189;-83
2021/06/21 08:53:44;;;;;;;11.85;3.25;;;;;;;28.90;46.73;97743.05;126308;1092;25767;-83
2021/06/21 08:56:11;;;;;;;12.40;2.80;;;;;;;28.99;46.18;97742.73;126175;1093;26410;-83
2021/06/21 08:58:40;;;;;;;7.35;2.90;;;;;;;29.07;44.47;97737.99;126328;1093;27151;-83
2021/06/21 09:01:21;;;;;;;7.18;2.85;;;;;;;29.08;45.32;97734.02;126284;1093;22809;-83
2021/06/21 09:03:48;;;;;;;10.40;3.35;;;;;;;29.16;45.08;97730.09;126279;1093;22760;-83
2021/06/21 09:06:23;;;;;;;7.00;2.65;;;;;;;29.31;45.31;97736.65;126283;1093;22858;-83
2021/06/21 09:08:58;;;;;;;9.60;2.48;;;;;;;29.43;44.32;97741.13;126274;1093;22757;-84
2021/06/21 09:11:49;;;;;;;8.98;2.93;;;;;;;29.60;44.08;97734.86;126222;1093;22924;-83
2021/06/21 09:14:31;;;;;;;10.05;3.10;;;;;;;29.75;43.64;97738.62;126362;1093;22774;-84
2021/06/21 09:17:07;;;;;;;11.40;3.20;;;;;;;29.92;43.43;97739.91;126410;1092;22919;-84
2021/06/21 09:19:54;;;;;;;11.30;3.70;;;;;;;30.04;42.47;97736.77;126572;1093;25977;-84
2021/06/21 09:22:27;;;;;;;7.93;2.70;;;;;;;30.18;41.49;97740.88;126489;1093;24437;-84
2021/06/21 09:24:55;;;;;;;10.00;2.90;;;;;;;30.29;41.20;97731.27;126364;1093;22761;-83
2021/06/21 09:27:24;;;;;;;11.38;2.53;;;;;;;30.44;40.26;97743.42;126303;1093;24412;-83
2021/06/21 09:29:53;;;;;;;10.20;2.90;;;;;;;30.52;40.06;97737.83;126165;1093;22784;-83
2021/06/21 09:32:20;;;;;;;;;;;;;;;30.56;39.68;97730.20;126050;1093;22784;-84
2021/06/21 09:34:47;;;;;;;8.03;2.53;;;;;;;30.65;39.80;97733.44;126237;1093;21456;-84
2021/06/21 09:37:17;;;;;;;9.30;2.88;;;;;;;30.79;39.51;97732.68;126170;1093;22823;-83
2021/06/21 09:39:49;;;;;;;7.70;3.13;;;;;;;30.85;39.31;97734.71;126108;1093;22759;-83
2021/06/21 09:42:24;;;;;;;16.95;3.25;;;;;;;30.93;38.66;97729.92;126336;1093;22781;-83
2021/06/21 09:45:00;;;;;;;8.90;2.80;;;;;;;31.09;38.71;97723.92;126098;1093;22858;-83
2021/06/21 09:47:35;;;;;;;14.13;3.78;;;;;;;31.21;39.19;97726.34;126262;1093;22793;-84
2021/06/21 09:50:08;;;;;;;9.53;3.00;;;;;;;31.39;39.37;97722.73;126281;1092;22701;-84
2021/06/21 09:52:45;;;;;;;9.70;2.75;;;;;;;31.54;38.13;97718.75;126637;1093;22728;-84
2021/06/21 09:55:21;;;;;;;8.88;2.70;;;;;;;31.65;36.80;97715.91;126184;1093;22754;-84
2021/06/21 09:58:18;;;;;;;6.23;2.70;;;;;;;31.73;37.50;97714.70;126174;1093;22761;-82
2021/06/21 10:01:06;;;;;;;8.85;2.73;;;;;;;31.77;36.57;97709.86;126357;1093;22784;-82
2021/06/21 10:03:41;;;;;;;7.53;3.00;;;;;;;31.86;36.65;97705.83;126147;1093;22788;-83
2021/06/21 10:06:14;;;;;;;8.70;2.60;;;;;;;31.93;36.11;97706.61;126082;1093;22843;-83
2021/06/21 10:08:47;;;;;;;9.85;2.53;;;;;;;32.01;36.31;97706.58;126084;1093;22784;-82
2021/06/21 10:11:45;;;;;;;15.43;3.90;;;;;;;32.09;35.90;97706.19;126106;1093;22790;-83
2021/06/21 10:14:14;;;;;;;8.28;2.78;;;;;;;32.22;37.16;97708.55;126062;1093;22808;-82
2021/06/21 10:16:48;;;;;;;9.63;2.28;;;;;;;32.34;36.06;97700.45;126157;1093;22784;-82
2021/06/21 10:19:18;;;;;;;7.60;2.33;;;;;;;32.43;35.89;97697.19;126244;1092;22989;-83
2021/06/21 10:21:55;;;;;;;8.63;2.88;;;;;;;32.42;35.49;97703.23;126104;1093;27547;-83
2021/06/21 10:24:30;;;;;;;9.38;2.50;;;;;;;32.44;35.62;97706.44;126070;1092;25867;-82
2021/06/21 10:27:04;;;;;;;12.23;2.70;;;;;;;32.47;36.07;97694.34;126272;1093;22812;-83
2021/06/21 10:29:32;;;;;;;7.60;2.33;;;;;;;32.60;35.38;97692.71;126190;1093;22797;-84
2021/06/21 10:32:01;;;;;;;8.73;2.53;;;;;;;32.71;35.13;97687.01;126403;1093;22756;-83
2021/06/21 10:34:28;;;;;;;8.60;2.40;;;;;;;32.77;34.77;97687.37;126257;1093;22893;-83
2021/06/21 10:36:57;;;;;;;7.38;1.98;;;;;;;32.88;35.03;97696.55;126154;1093;22778;-83
2021/06/21 10:39:34;;;;;;;8.30;2.15;;;;;;;33.00;34.81;97689.63;126225;1093;23002;-83
2021/06/21 10:42:07;;;;;;;5.60;2.50;;;;;;;33.10;34.08;97694.39;126346;1093;25867;-83
2021/06/21 10:44:41;;;;;;;7.18;1.98;;;;;;;33.24;32.89;97685.84;126214;1091;24568;-84
2021/06/21 10:47:29;;;;;;;6.93;2.15;;;;;;;33.39;32.56;97689.33;126348;1093;27194;-83
2021/06/21 10:50:18;;;;;;;5.50;1.88;;;;;;;33.49;32.96;97693.28;126227;1093;24439;-83
2021/06/21 10:52:49;;;;;;;7.97;2.40;;;;;;;33.49;32.33;97690.46;126342;1093;22885;-83
2021/06/21 10:55:26;;;;;;;7.60;2.20;;;;;;;33.53;31.96;97687.61;126104;1091;22784;-83
2021/06/21 10:58:07;;;;;;;9.73;2.10;;;;;;;33.55;31.76;97673.86;126231;1093;27469;-83
2021/06/21 11:00:38;;;;;;;5.18;1.80;;;;;;;33.61;32.20;97672.20;126234;1092;22802;-84
2021/06/21 11:06:23;;;;;;;8.98;2.40;;;;;;;33.70;32.16;97671.72;126282;1092;22781;-84
2021/06/21 11:08:54;;;;;;;12.08;2.28;;;;;;;33.79;32.58;97664.36;126250;1093;22757;-84
2021/06/21 11:11:44;;;;;;;3.80;1.87;;;;;;;33.92;32.59;97667.44;126308;1092;22757;-84
2021/06/21 11:14:15;;;;;;;7.53;2.08;;;;;;;34.05;32.34;97662.03;126354;1093;22862;-84
2021/06/21 11:16:44;;;;;;;5.43;1.68;;;;;;;34.14;31.70;97659.52;126140;1093;22759;-83
2021/06/21 11:19:15;;;;;;;8.80;1.85;;;;;;;34.20;31.41;97665.53;126173;1092;22771;-83
2021/06/21 11:21:55;;;;;;;10.63;2.18;;;;;;;34.17;31.81;97655.83;126251;1093;24269;-83
2021/06/21 11:24:43;;;;;;;6.40;1.80;;;;;;;34.20;31.22;97665.53;126273;1093;22856;-83
2021/06/21 11:27:17;;;;;;;5.25;1.88;;;;;;;34.15;30.10;97672.41;126299;1093;27185;-84
2021/06/21 11:29:56;;;;;;;5.50;2.00;;;;;;;34.15;30.32;97668.80;126270;1093;22760;-84
2021/06/21 11:32:25;;;;;;;7.43;1.90;;;;;;;34.12;30.37;97661.98;126350;1092;26273;-84
2021/06/21 11:34:56;;;;;;;4.78;1.95;;;;;;;34.16;31.28;97654.25;126165;1093;22819;-84
2021/06/21 11:37:50;;;;;;;6.45;1.80;;;;;;;34.20;31.42;97640.09;126228;1093;22784;-84
2021/06/21 11:40:26;;;;;;;6.60;2.40;;;;;;;34.32;31.17;97633.09;126251;1093;26951;-84
2021/06/21 11:43:02;;;;;;;11.13;1.70;;;;;;;34.42;31.68;97634.94;126228;1093;22912;-84
2021/06/21 11:46:00;;;;;;;7.73;1.60;;;;;;;34.51;29.44;97632.41;126239;1093;22896;-84